Time;durP1;ratioP1;P1;durP2;ratioP2;P2;SDS_P1;SDS_P2;PMS_P1;PMS_P2;Temp;Humidity;BMP_temperature;BMP_pressure;BME280_temperature;BME280_humidity;BME280_pressure;Samples;Min_cycle;Max_cycle;Signal;HPM_P1;HPM_P2
2023/09/08 00:00:57;;;;;;;11.07;7.27;;;21.30;99.90;;;;;;7294449;19;20671;-76
2023/09/08 00:03:23;;;;;;;10.57;6.90;;;21.30;99.90;;;;;;7310874;19;20193;-78
2023/09/08 00:05:49;;;;;;;11.73;6.47;;;21.20;99.90;;;;;;7290976;19;20655;-77
2023/09/08 00:08:15;;;;;;;12.77;6.50;;;21.10;99.90;;;;;;7286493;19;20220;-77
2023/09/08 00:10:42;;;;;;;11.67;6.87;;;21.00;99.90;;;;;;7287439;19;20631;-77
2023/09/08 00:13:08;;;;;;;11.50;7.57;;;21.00;99.90;;;;;;7286964;19;20197;-76
2023/09/08 00:15:37;;;;;;;12.07;7.73;;;21.00;99.90;;;;;;7288069;19;20195;-81
2023/09/08 00:18:03;;;;;;;13.77;8.10;;;21.10;99.90;;;;;;7289764;19;20204;-77
2023/09/08 00:20:28;;;;;;;13.80;7.77;;;21.20;99.90;;;;;;7288278;19;20388;-77
2023/09/08 00:22:54;;;;;;;12.17;7.80;;;21.20;99.90;;;;;;7310235;19;20200;-77
2023/09/08 00:25:20;;;;;;;13.27;7.40;;;21.20;99.90;;;;;;7287401;19;20200;-76
2023/09/08 00:27:46;;;;;;;10.97;6.73;;;21.20;99.90;;;;;;7286952;19;20211;-77
2023/09/08 00:30:12;;;;;;;15.47;7.73;;;21.10;99.90;;;;;;7285695;19;20205;-77
2023/09/08 00:32:38;;;;;;;13.23;7.57;;;21.10;99.90;;;;;;7286950;19;20209;-80
2023/09/08 00:35:08;;;;;;;13.80;7.17;;;21.10;99.90;;;;;;7287259;19;20200;-81
2023/09/08 00:37:33;;;;;;;10.40;7.00;;;21.10;99.90;;;;;;7289514;19;20313;-80
2023/09/08 00:39:59;;;;;;;14.03;7.60;;;21.00;99.90;;;;;;7288526;19;20665;-80
2023/09/08 00:42:25;;;;;;;10.40;7.10;;;20.90;99.90;;;;;;7311046;19;20181;-80
2023/09/08 00:44:51;;;;;;;10.83;7.33;;;20.90;99.90;;;;;;7290134;19;20719;-81
2023/09/08 00:47:17;;;;;;;12.00;8.40;;;20.90;99.90;;;;;;7288740;19;20188;-77
2023/09/08 00:49:43;;;;;;;13.10;7.57;;;20.90;99.90;;;;;;7284940;19;20213;-77
2023/09/08 00:52:09;;;;;;;10.90;7.77;;;20.90;99.90;;;;;;7286591;19;20192;-77
2023/09/08 00:54:35;;;;;;;15.10;7.73;;;21.00;99.90;;;;;;7284821;19;20535;-77
2023/09/08 00:57:03;;;;;;;12.83;7.70;;;21.00;99.90;;;;;;7285229;19;20561;-75
2023/09/08 00:59:31;;;;;;;10.37;6.90;;;21.00;99.90;;;;;;7286732;19;20192;-78
2023/09/08 01:01:57;;;;;;;11.30;7.47;;;20.80;99.90;;;;;;7290313;19;20184;-78
2023/09/08 01:04:23;;;;;;;13.40;7.27;;;20.70;99.90;;;;;;7308761;19;20196;-81
2023/09/08 01:06:50;;;;;;;14.63;7.30;;;20.60;99.90;;;;;;7288041;19;20202;-81
2023/09/08 01:09:17;;;;;;;11.03;7.27;;;20.60;99.90;;;;;;7288011;19;20201;-80
2023/09/08 01:11:43;;;;;;;13.23;7.73;;;20.60;99.90;;;;;;7288201;19;20195;-81
2023/09/08 01:14:11;;;;;;;12.53;7.27;;;20.60;99.90;;;;;;7286852;19;20213;-81
2023/09/08 01:16:37;;;;;;;12.57;7.67;;;20.70;99.90;;;;;;7284692;19;20192;-77
2023/09/08 01:19:06;;;;;;;14.53;8.17;;;20.70;99.90;;;;;;7284411;19;20201;-78
2023/09/08 01:21:52;;;;;;;11.27;7.67;;;20.70;99.90;;;;;;7284729;19;20181;-76
2023/09/08 01:24:36;;;;;;;14.47;7.60;;;20.70;99.90;;;;;;7288195;19;20600;-79
2023/09/08 01:27:02;;;;;;;13.33;7.43;;;20.70;99.90;;;;;;7184260;19;2005050;-80
2023/09/08 01:29:29;;;;;;;12.50;7.40;;;20.70;99.90;;;;;;7288153;19;20184;-76
2023/09/08 01:31:56;;;;;;;14.83;7.87;;;20.70;99.90;;;;;;7307028;19;20539;-77
2023/09/08 01:34:22;;;;;;;13.60;7.97;;;20.70;99.90;;;;;;7284923;19;20192;-77
2023/09/08 01:36:48;;;;;;;12.63;8.33;;;20.70;99.90;;;;;;7283935;19;20195;-78
2023/09/08 01:39:14;;;;;;;13.73;8.90;;;20.70;99.90;;;;;;7281136;19;20198;-76
2023/09/08 01:41:40;;;;;;;13.43;7.97;;;20.70;99.90;;;;;;7282341;19;20259;-77
2023/09/08 01:44:10;;;;;;;13.53;8.43;;;20.60;99.90;;;;;;7284002;19;20709;-77
2023/09/08 01:46:35;;;;;;;14.73;8.17;;;20.50;99.90;;;;;;7284557;19;20208;-77
2023/09/08 01:49:01;;;;;;;12.27;8.67;;;20.60;99.90;;;;;;7285008;19;20191;-80
2023/09/08 01:51:27;;;;;;;12.47;8.27;;;20.50;99.90;;;;;;7292700;19;20181;-80
2023/09/08 01:53:53;;;;;;;14.50;9.23;;;20.50;99.90;;;;;;7308934;19;20210;-80
2023/09/08 01:56:18;;;;;;;12.77;8.70;;;20.40;99.90;;;;;;7286121;19;20205;-81
2023/09/08 01:58:44;;;;;;;14.50;8.60;;;20.40;99.90;;;;;;7286350;19;20658;-77
2023/09/08 02:01:10;;;;;;;13.73;9.00;;;20.40;99.90;;;;;;7285213;19;20311;-82
2023/09/08 02:03:36;;;;;;;14.67;9.27;;;20.40;99.90;;;;;;7287406;19;20520;-81
2023/09/08 02:06:02;;;;;;;14.03;8.77;;;20.30;99.90;;;;;;7287035;19;20226;-80
2023/09/08 02:08:28;;;;;;;14.43;9.07;;;20.20;99.90;;;;;;7285030;19;20232;-81
2023/09/08 02:10:53;;;;;;;14.10;8.73;;;20.20;99.90;;;;;;7309725;19;20589;-80
2023/09/08 02:13:19;;;;;;;15.00;9.23;;;20.30;99.90;;;;;;7283539;19;20267;-81
2023/09/08 02:15:45;;;;;;;13.37;9.57;;;20.20;99.90;;;;;;7284914;19;20187;-81
2023/09/08 02:18:11;;;;;;;13.43;9.57;;;20.20;99.90;;;;;;7284773;19;20571;-77
2023/09/08 02:20:39;;;;;;;16.83;9.23;;;20.20;99.90;;;;;;7283734;19;20200;-78
2023/09/08 02:23:06;;;;;;;15.23;9.20;;;20.20;99.90;;;;;;7282722;19;20187;-77
2023/09/08 02:25:33;;;;;;;13.47;9.47;;;20.20;99.90;;;;;;7284153;19;20187;-77
2023/09/08 02:27:59;;;;;;;13.73;9.37;;;20.20;99.90;;;;;;7282475;19;20191;-80
2023/09/08 02:30:25;;;;;;;14.33;9.60;;;20.20;99.90;;;;;;7304455;19;20189;-81
2023/09/08 02:32:52;;;;;;;13.80;9.27;;;20.00;99.90;;;;;;7286770;19;20208;-80
2023/09/08 02:35:17;;;;;;;12.80;8.83;;;19.90;99.90;;;;;;7283713;19;20190;-77
2023/09/08 02:37:43;;;;;;;14.30;8.70;;;19.90;99.90;;;;;;7283446;19;20195;-77
2023/09/08 02:40:09;;;;;;;15.47;9.27;;;19.90;99.90;;;;;;7282817;19;20191;-76
2023/09/08 02:42:37;;;;;;;15.97;9.93;;;19.90;99.90;;;;;;7281296;19;20620;-76
2023/09/08 02:45:02;;;;;;;15.27;9.43;;;19.90;99.90;;;;;;7281628;19;20190;-77
2023/09/08 02:47:28;;;;;;;16.40;9.53;;;19.90;99.90;;;;;;7281678;19;20916;-77
2023/09/08 02:49:55;;;;;;;13.60;9.17;;;19.90;99.90;;;;;;7300678;19;20198;-77
2023/09/08 02:52:20;;;;;;;13.90;9.33;;;19.90;99.90;;;;;;7282716;19;20204;-77
2023/09/08 02:54:46;;;;;;;14.20;8.93;;;19.90;99.90;;;;;;7283662;19;20534;-81
2023/09/08 02:57:12;;;;;;;15.03;9.77;;;19.90;99.90;;;;;;7283234;19;20485;-81
2023/09/08 02:59:38;;;;;;;14.43;8.90;;;19.90;99.90;;;;;;7285359;19;21014;-81
2023/09/08 03:02:04;;;;;;;15.60;9.33;;;20.00;99.90;;;;;;7284069;19;20191;-80
2023/09/08 03:04:30;;;;;;;15.23;9.03;;;20.00;99.90;;;;;;7283892;19;20191;-81
2023/09/08 03:06:56;;;;;;;13.77;9.50;;;20.00;99.90;;;;;;7300879;19;20193;-81
2023/09/08 03:09:22;;;;;;;13.70;9.80;;;20.00;99.90;;;;;;7298725;19;20665;-81
2023/09/08 03:11:48;;;;;;;14.13;9.43;;;20.00;99.90;;;;;;7285028;19;20274;-77
2023/09/08 03:14:13;;;;;;;14.07;9.63;;;20.10;99.90;;;;;;7280824;19;20229;-78
2023/09/08 03:16:39;;;;;;;13.13;9.70;;;20.00;99.90;;;;;;7281597;19;20215;-81
2023/09/08 03:19:05;;;;;;;15.80;10.30;;;19.90;99.90;;;;;;7282858;19;20313;-81
2023/09/08 03:21:31;;;;;;;13.13;9.87;;;20.00;99.90;;;;;;7282904;19;20184;-81
2023/09/08 03:23:57;;;;;;;15.83;9.63;;;20.00;99.90;;;;;;7292554;19;20662;-80
2023/09/08 03:26:23;;;;;;;15.73;9.13;;;19.90;99.90;;;;;;7303442;19;20183;-81
2023/09/08 03:28:50;;;;;;;15.47;9.27;;;19.90;99.90;;;;;;7280638;19;20223;-81
2023/09/08 03:31:16;;;;;;;13.93;8.93;;;19.90;99.90;;;;;;7282464;19;20195;-81
2023/09/08 03:33:42;;;;;;;16.17;10.17;;;19.90;99.90;;;;;;7282786;19;20217;-81
2023/09/08 03:36:09;;;;;;;12.23;8.47;;;19.80;99.90;;;;;;7281551;19;20569;-82
2023/09/08 03:38:37;;;;;;;12.93;9.17;;;19.80;99.90;;;;;;7285596;19;20628;-81
2023/09/08 03:41:04;;;;;;;17.00;8.67;;;19.80;99.90;;;;;;7281946;19;20195;-77
2023/09/08 03:43:29;;;;;;;15.33;8.83;;;19.70;99.90;;;;;;7280745;19;20204;-79
2023/09/08 03:45:56;;;;;;;13.03;8.33;;;19.60;99.90;;;;;;7302187;19;20189;-80
2023/09/08 03:48:22;;;;;;;13.23;8.87;;;19.70;99.90;;;;;;7278508;19;20177;-81
2023/09/08 03:50:49;;;;;;;16.63;9.60;;;19.60;99.90;;;;;;7282150;19;20204;-81
2023/09/08 03:53:15;;;;;;;16.03;9.40;;;19.60;99.90;;;;;;7283750;19;20221;-81
2023/09/08 03:55:47;;;;;;;14.10;9.30;;;19.60;99.90;;;;;;7280644;19;20198;-82
2023/09/08 03:58:15;;;;;;;15.50;9.80;;;19.70;99.90;;;;;;7282919;19;20215;-81
2023/09/08 04:00:41;;;;;;;14.43;9.40;;;19.60;99.90;;;;;;7280449;19;20266;-80
2023/09/08 04:03:08;;;;;;;13.73;8.63;;;19.60;99.90;;;;;;7281242;19;20255;-81
2023/09/08 04:05:33;;;;;;;13.00;8.43;;;19.50;99.90;;;;;;7281701;19;20197;-81
2023/09/08 04:07:59;;;;;;;11.97;8.33;;;19.40;99.90;;;;;;7281071;19;20262;-80
2023/09/08 04:10:25;;;;;;;16.07;9.73;;;19.50;99.90;;;;;;7302414;19;20205;-81
2023/09/08 04:12:51;;;;;;;15.17;10.13;;;19.50;99.90;;;;;;7280879;19;20202;-81
2023/09/08 04:15:17;;;;;;;17.83;9.93;;;19.60;99.90;;;;;;7280963;19;20273;-81
2023/09/08 04:17:43;;;;;;;12.30;9.07;;;19.60;99.90;;;;;;7281760;19;20198;-82
2023/09/08 04:20:10;;;;;;;14.13;9.60;;;19.60;99.90;;;;;;7280950;19;20203;-81
2023/09/08 04:22:35;;;;;;;16.00;9.80;;;19.50;99.90;;;;;;7282205;19;20235;-81
2023/09/08 04:25:02;;;;;;;15.60;10.23;;;19.50;99.90;;;;;;7280591;19;20195;-78
2023/09/08 04:27:28;;;;;;;17.23;10.37;;;19.50;99.90;;;;;;7283292;19;20253;-78
2023/09/08 04:29:54;;;;;;;13.63;9.53;;;19.50;99.90;;;;;;7296399;19;20693;-77
2023/09/08 04:32:19;;;;;;;15.80;10.67;;;19.60;99.90;;;;;;7277282;19;20191;-77
2023/09/08 04:34:45;;;;;;;14.93;9.80;;;19.60;99.90;;;;;;7276033;19;20200;-77
2023/09/08 04:37:11;;;;;;;14.17;9.20;;;19.60;99.90;;;;;;7276804;19;20183;-77
2023/09/08 04:39:37;;;;;;;16.03;10.03;;;19.60;99.90;;;;;;7279762;19;20627;-77
2023/09/08 04:42:03;;;;;;;18.13;10.50;;;19.50;99.90;;;;;;7282481;19;20298;-78
2023/09/08 04:44:29;;;;;;;17.03;9.00;;;19.50;99.90;;;;;;7285758;19;20186;-78
2023/09/08 04:46:55;;;;;;;12.00;8.67;;;19.50;99.90;;;;;;7307773;19;20243;-78
2023/09/08 04:49:21;;;;;;;14.10;9.33;;;19.40;99.90;;;;;;7284721;19;20193;-78
2023/09/08 04:51:48;;;;;;;16.33;9.60;;;19.40;99.90;;;;;;7284046;19;20184;-77
2023/09/08 04:54:16;;;;;;;15.30;11.17;;;19.40;99.90;;;;;;7287097;19;20287;-78
2023/09/08 04:56:42;;;;;;;14.53;10.63;;;19.40;99.90;;;;;;7284490;19;20255;-78
2023/09/08 04:59:08;;;;;;;17.77;11.97;;;19.50;99.90;;;;;;7286857;19;20200;-78
2023/09/08 05:01:37;;;;;;;17.73;11.37;;;19.50;99.90;;;;;;7285879;19;20187;-78
2023/09/08 05:04:04;;;;;;;14.10;9.70;;;19.50;99.90;;;;;;7284540;19;20287;-78
2023/09/08 05:06:30;;;;;;;12.70;8.63;;;19.50;99.90;;;;;;7284873;19;20203;-77
2023/09/08 05:08:57;;;;;;;15.60;9.00;;;19.50;99.90;;;;;;7306441;19;20964;-78
2023/09/08 05:11:25;;;;;;;12.97;8.43;;;19.40;99.90;;;;;;7286132;19;20183;-78
2023/09/08 05:13:51;;;;;;;12.80;8.80;;;19.40;99.90;;;;;;7284827;19;20220;-77
2023/09/08 05:16:18;;;;;;;14.97;10.23;;;19.40;99.90;;;;;;7285520;19;20196;-77
2023/09/08 05:18:49;;;;;;;16.67;10.20;;;19.40;99.90;;;;;;7287365;19;20209;-79
2023/09/08 05:21:15;;;;;;;15.37;10.07;;;19.40;99.90;;;;;;7285876;19;20227;-78
2023/09/08 05:23:41;;;;;;;13.77;9.63;;;19.40;99.90;;;;;;7285651;19;20279;-78
2023/09/08 05:26:09;;;;;;;15.40;9.80;;;19.40;99.90;;;;;;7286721;19;20206;-77
2023/09/08 05:28:35;;;;;;;15.90;10.77;;;19.50;99.90;;;;;;7281478;19;20189;-77
2023/09/08 05:31:01;;;;;;;20.03;10.87;;;19.50;99.90;;;;;;7284910;19;20195;-78
2023/09/08 05:33:26;;;;;;;17.47;9.53;;;19.60;99.90;;;;;;7304198;19;20195;-77
2023/09/08 05:35:53;;;;;;;16.30;10.93;;;19.60;99.90;;;;;;7295575;19;20198;-76
2023/09/08 05:38:18;;;;;;;13.40;10.37;;;19.70;99.90;;;;;;7284719;19;20190;-75
2023/09/08 05:40:44;;;;;;;14.70;10.73;;;19.80;99.90;;;;;;7284038;19;20196;-77
2023/09/08 05:43:10;;;;;;;15.00;9.37;;;19.90;99.90;;;;;;7282595;19;20824;-77
2023/09/08 05:45:36;;;;;;;15.10;9.33;;;20.40;99.90;;;;;;7285767;19;20269;-83
2023/09/08 05:48:03;;;;;;;14.97;8.40;;;21.30;99.90;;;;;;7287143;19;20254;-82
2023/09/08 05:50:29;;;;;;;13.03;8.17;;;22.10;99.90;;;;;;7286965;19;20621;-83
2023/09/08 05:52:58;;;;;;;12.70;7.73;;;22.80;99.90;;;;;;7307395;19;20687;-83
2023/09/08 05:55:24;;;;;;;13.00;7.17;;;23.40;99.90;;;;;;7287313;19;20193;-83
2023/09/08 05:57:50;;;;;;;12.03;6.90;;;23.70;99.90;;;;;;7288207;19;20202;-83
2023/09/08 06:00:16;;;;;;;9.83;6.20;;;24.10;99.90;;;;;;7286926;19;20189;-82
2023/09/08 06:02:46;;;;;;;10.27;5.85;;;24.40;99.90;;;;;;7285751;19;20188;-82
2023/09/08 06:05:15;;;;;;;9.95;5.60;;;24.90;99.90;;;;;;7287433;19;20241;-84
2023/09/08 06:07:40;;;;;;;13.00;6.18;;;25.50;99.90;;;;;;7286213;19;20264;-83
2023/09/08 06:10:08;;;;;;;10.90;6.10;;;26.00;99.90;;;;;;7286828;19;20192;-78
2023/09/08 06:12:34;;;;;;;11.80;6.10;;;26.30;99.90;;;;;;7283859;19;20272;-78
2023/09/08 06:15:03;;;;;;;14.75;6.57;;;26.10;99.90;;;;;;7283909;19;20193;-77
2023/09/08 06:17:29;;;;;;;11.15;6.30;;;25.70;99.90;;;;;;7284572;19;20189;-78
2023/09/08 06:19:55;;;;;;;10.35;6.85;;;25.10;99.90;;;;;;7308941;19;20205;-82
2023/09/08 06:22:22;;;;;;;12.35;7.53;;;24.60;99.90;;;;;;7286307;19;20193;-83
2023/09/08 06:24:48;;;;;;;16.08;7.63;;;24.10;99.90;;;;;;7286075;19;20194;-82
2023/09/08 06:27:15;;;;;;;13.73;7.55;;;23.80;99.90;;;;;;7284955;19;20204;-83
2023/09/08 06:29:43;;;;;;;16.30;8.75;;;23.60;99.90;;;;;;7286132;19;20516;-83
2023/09/08 06:32:11;;;;;;;13.43;8.43;;;23.40;99.90;;;;;;7285903;19;20260;-83
2023/09/08 06:34:38;;;;;;;12.67;7.53;;;23.30;99.90;;;;;;7284502;19;20292;-83
2023/09/08 06:37:04;;;;;;;11.90;7.73;;;23.10;99.90;;;;;;7285616;19;20582;-77
2023/09/08 06:39:30;;;;;;;13.57;8.27;;;23.00;99.90;;;;;;7286077;19;20200;-82
2023/09/08 06:41:56;;;;;;;13.43;8.40;;;22.90;99.90;;;;;;7306809;19;20192;-84
2023/09/08 06:44:23;;;;;;;14.97;7.23;;;23.20;99.90;;;;;;7286051;19;20193;-84
2023/09/08 06:46:48;;;;;;;13.80;6.95;;;24.70;99.90;;;;;;7281906;19;20189;-79
2023/09/08 06:49:14;;;;;;;11.65;6.88;;;26.80;99.90;;;;;;7283290;19;20204;-79
2023/09/08 06:51:40;;;;;;;12.10;6.45;;;28.90;99.90;;;;;;7284951;19;20200;-78
2023/09/08 06:54:07;;;;;;;12.55;6.22;;;30.50;99.90;;;;;;7284770;19;20185;-79
2023/09/08 06:56:37;;;;;;;13.68;6.32;;;32.00;99.90;;;;;;7282274;19;20196;-78
2023/09/08 06:59:04;;;;;;;11.27;6.20;;;33.00;99.90;;;;;;7285631;19;20197;-79
2023/09/08 07:01:30;;;;;;;11.88;6.75;;;34.20;99.90;;;;;;7283350;19;20675;-79
2023/09/08 07:03:56;;;;;;;10.57;5.65;;;34.90;99.90;;;;;;7305203;19;20193;-79
2023/09/08 07:06:22;;;;;;;11.98;6.00;;;35.60;99.90;;;;;;7284854;19;20262;-79
2023/09/08 07:08:50;;;;;;;10.70;5.75;;;35.60;99.90;;;;;;7284294;19;20198;-84
2023/09/08 07:11:17;;;;;;;10.73;6.05;;;35.20;99.90;;;;;;7287341;19;20277;-84
2023/09/08 07:13:43;;;;;;;11.65;6.10;;;35.30;99.90;;;;;;7284603;19;20203;-79
2023/09/08 07:16:09;;;;;;;11.50;5.80;;;35.20;99.90;;;;;;7283786;19;20642;-78
2023/09/08 07:18:37;;;;;;;9.95;6.18;;;35.60;99.90;;;;;;7284064;19;20188;-78
2023/09/08 07:21:04;;;;;;;11.68;6.18;;;37.00;99.90;;;;;;7282777;19;20522;-79
2023/09/08 07:23:30;;;;;;;11.48;6.22;;;37.80;99.00;;;;;;7283323;19;20191;-79
2023/09/08 07:25:56;;;;;;;10.52;5.55;;;37.80;97.10;;;;;;7305651;19;20180;-84
2023/09/08 07:28:26;;;;;;;11.50;6.13;;;38.20;96.50;;;;;;7285220;19;20189;-85
2023/09/08 07:30:53;;;;;;;14.52;6.00;;;38.50;95.00;;;;;;7286394;19;20184;-84
2023/09/08 07:33:22;;;;;;;8.50;5.32;;;39.10;93.80;;;;;;7285261;19;20199;-78
2023/09/08 07:35:49;;;;;;;9.00;5.50;;;39.80;92.30;;;;;;7281934;19;20192;-78
2023/09/08 07:38:14;;;;;;;8.85;5.38;;;40.20;91.00;;;;;;7282748;19;20817;-79
2023/09/08 07:40:41;;;;;;;11.90;5.85;;;40.40;90.20;;;;;;7285890;19;20295;-79
2023/09/08 07:43:07;;;;;;;9.32;5.28;;;40.90;87.60;;;;;;7287837;19;20196;-84
2023/09/08 07:45:33;;;;;;;11.43;6.00;;;41.60;85.30;;;;;;7289956;19;20191;-84
2023/09/08 07:48:00;;;;;;;12.88;5.30;;;42.20;80.80;;;;;;7289005;19;20192;-84
2023/09/08 07:50:28;;;;;;;13.13;5.88;;;42.30;78.90;;;;;;7313246;19;20235;-85
2023/09/08 07:52:56;;;;;;;9.35;5.60;;;42.50;75.60;;;;;;7288260;19;20559;-84
2023/09/08 07:55:23;;;;;;;11.73;5.20;;;42.40;75.00;;;;;;7284834;19;20642;-85
2023/09/08 07:57:50;;;;;;;8.90;5.30;;;42.50;74.80;;;;;;7286346;19;20215;-84
2023/09/08 08:00:17;;;;;;;11.65;5.43;;;42.90;73.80;;;;;;7283155;19;20213;-84
2023/09/08 08:02:46;;;;;;;9.13;6.20;;;43.50;71.00;;;;;;7279715;19;20731;-79
2023/09/08 08:05:12;;;;;;;11.57;5.90;;;43.50;68.50;;;;;;7283004;19;20680;-79
2023/09/08 08:07:39;;;;;;;8.75;4.90;;;43.70;68.40;;;;;;7283030;19;20201;-79
2023/09/08 08:10:06;;;;;;;10.00;5.85;;;44.20;68.20;;;;;;7283366;19;20543;-78
2023/09/08 08:12:32;;;;;;;10.00;5.45;;;44.00;66.70;;;;;;7281586;19;20199;-78
2023/09/08 08:14:58;;;;;;;11.85;6.05;;;44.00;65.90;;;;;;7296923;19;20196;-84
2023/09/08 08:17:26;;;;;;;12.70;6.35;;;44.20;64.90;;;;;;7312298;19;20193;-85
2023/09/08 08:19:52;;;;;;;10.98;5.60;;;44.40;63.50;;;;;;7290779;19;20208;-84
2023/09/08 08:22:18;;;;;;;9.05;5.75;;;44.30;63.60;;;;;;7289068;19;20186;-85
2023/09/08 08:24:44;;;;;;;8.00;5.70;;;43.90;64.00;;;;;;7290282;19;20209;-85
2023/09/08 08:27:10;;;;;;;9.43;5.22;;;44.40;63.80;;;;;;7287755;19;20184;-85
2023/09/08 08:29:35;;;;;;;10.55;5.82;;;44.70;63.90;;;;;;7288159;19;20599;-85
2023/09/08 08:32:02;;;;;;;9.68;5.20;;;45.20;62.60;;;;;;7291568;19;20224;-85
2023/09/08 08:34:28;;;;;;;10.50;5.35;;;45.60;61.50;;;;;;7305650;19;20327;-79
2023/09/08 08:36:54;;;;;;;10.82;5.20;;;46.10;60.90;;;;;;7302903;19;20197;-80
2023/09/08 08:39:20;;;;;;;8.25;5.13;;;46.60;59.80;;;;;;7288575;19;20677;-85
2023/09/08 08:41:45;;;;;;;12.07;5.50;;;46.90;59.10;;;;;;7289351;19;20234;-85
2023/09/08 08:44:11;;;;;;;9.57;5.18;;;47.20;58.70;;;;;;7288356;19;20189;-79
2023/09/08 08:46:38;;;;;;;9.55;5.13;;;47.20;57.90;;;;;;7288068;19;20217;-79
2023/09/08 08:49:04;;;;;;;10.75;5.80;;;47.10;57.50;;;;;;7287738;19;20185;-79
2023/09/08 08:51:34;;;;;;;10.18;5.70;;;47.30;56.90;;;;;;7288858;19;20191;-79
2023/09/08 08:54:04;;;;;;;10.30;5.50;;;47.70;56.20;;;;;;7290549;19;20205;-85
2023/09/08 08:56:31;;;;;;;7.88;5.07;;;47.80;56.10;;;;;;7288220;19;20193;-82
2023/09/08 08:59:01;;;;;;;14.07;6.00;;;47.70;56.10;;;;;;7309100;19;20192;-82
2023/09/08 09:01:28;;;;;;;11.57;5.85;;;46.90;55.50;;;;;;7310702;19;20201;-82
2023/09/08 09:03:55;;;;;;;10.85;5.82;;;46.50;56.90;;;;;;7289332;19;20654;-79
2023/09/08 09:06:21;;;;;;;12.38;5.72;;;46.90;56.80;;;;;;7287232;19;20193;-79
2023/09/08 09:08:46;;;;;;;10.43;6.07;;;47.40;56.20;;;;;;7286741;19;20204;-79
2023/09/08 09:11:13;;;;;;;12.90;5.82;;;47.40;55.50;;;;;;7287070;19;20203;-79
2023/09/08 09:13:39;;;;;;;11.15;5.85;;;47.50;55.30;;;;;;7285808;19;20205;-77
2023/09/08 09:16:10;;;;;;;11.38;5.65;;;47.80;55.50;;;;;;7285390;19;20195;-78
2023/09/08 09:18:55;;;;;;;9.73;5.60;;;47.80;54.50;;;;;;7288083;19;20196;-79
2023/09/08 09:21:21;;;;;;;11.82;6.22;;;47.00;54.50;;;;;;7285877;19;20191;-79
2023/09/08 09:23:47;;;;;;;12.30;6.10;;;44.90;56.20;;;;;;7286655;19;20192;-79
2023/09/08 09:26:24;;;;;;;8.30;5.70;;;42.60;59.50;;;;;;7287168;19;20201;-85
2023/09/08 09:28:51;;;;;;;14.70;6.60;;;40.50;62.60;;;;;;7287735;19;20202;-78
2023/09/08 09:31:18;;;;;;;10.18;6.68;;;39.20;66.20;;;;;;7284648;19;20206;-78
2023/09/08 09:33:45;;;;;;;13.32;6.07;;;38.00;69.20;;;;;;7286088;19;20676;-79
2023/09/08 09:36:20;;;;;;;14.15;6.72;;;37.10;71.30;;;;;;7285514;19;20204;-79
2023/09/08 09:38:47;;;;;;;11.63;7.35;;;36.30;75.00;;;;;;7292144;19;20281;-85
2023/09/08 09:41:13;;;;;;;13.55;7.60;;;35.70;77.80;;;;;;7299720;19;20200;-85
2023/09/08 09:43:39;;;;;;;14.65;7.18;;;35.30;81.90;;;;;;7292428;19;20253;-84
2023/09/08 09:46:08;;;;;;;13.43;7.90;;;35.40;82.20;;;;;;7295370;19;20204;-87
2023/09/08 09:48:35;;;;;;;12.35;6.07;;;36.90;79.90;;;;;;7293289;19;20185;-85
2023/09/08 09:51:16;;;;;;;10.70;6.07;;;38.90;75.70;;;;;;7292860;19;20185;-84
2023/09/08 09:53:43;;;;;;;9.88;5.65;;;40.80;71.70;;;;;;7297143;19;20217;-85
2023/09/08 09:56:10;;;;;;;9.48;5.80;;;42.40;68.10;;;;;;7295561;19;20188;-85
2023/09/08 09:58:37;;;;;;;9.63;4.82;;;43.60;64.70;;;;;;7298102;19;20190;-85
2023/09/08 10:01:04;;;;;;;12.23;5.70;;;44.60;64.30;;;;;;7293524;19;20268;-85
2023/09/08 10:03:31;;;;;;;8.48;5.57;;;45.30;61.50;;;;;;7294229;19;20560;-85
2023/09/08 10:05:59;;;;;;;12.95;5.35;;;45.60;60.10;;;;;;7315769;19;20184;-83
2023/09/08 10:08:25;;;;;;;10.77;5.05;;;46.20;59.60;;;;;;7310339;19;20189;-86
2023/09/08 10:10:51;;;;;;;9.05;4.97;;;46.90;58.50;;;;;;7287763;19;20244;-85
2023/09/08 10:13:28;;;;;;;11.30;5.70;;;47.10;57.20;;;;;;7288467;19;20195;-86
2023/09/08 10:15:58;;;;;;;12.55;5.10;;;47.10;57.00;;;;;;7289720;19;20195;-86
2023/09/08 10:18:24;;;;;;;12.70;5.30;;;47.20;56.90;;;;;;7291898;19;20220;-87
2023/09/08 10:20:54;;;;;;;11.65;4.90;;;47.40;57.40;;;;;;7285700;19;20190;-79
2023/09/08 10:23:26;;;;;;;13.15;5.30;;;47.20;56.70;;;;;;7283652;19;20188;-79
2023/09/08 10:25:56;;;;;;;8.10;4.28;;;47.40;56.60;;;;;;7284022;19;20255;-79
2023/09/08 10:28:23;;;;;;;12.50;4.97;;;47.50;56.40;;;;;;7286083;19;20184;-79
2023/09/08 10:30:50;;;;;;;10.45;4.80;;;47.30;55.60;;;;;;7285597;19;20286;-79
2023/09/08 10:33:16;;;;;;;8.20;4.97;;;46.70;56.10;;;;;;7287912;19;20196;-86
2023/09/08 10:35:43;;;;;;;9.02;4.22;;;47.40;55.80;;;;;;7288510;19;20197;-79
2023/09/08 10:38:26;;;;;;;10.40;4.78;;;47.50;55.70;;;;;;7282812;19;20188;-79
2023/09/08 10:40:53;;;;;;;10.50;4.68;;;47.60;54.00;;;;;;7281893;19;20184;-79
2023/09/08 10:43:20;;;;;;;9.02;4.40;;;47.50;53.90;;;;;;7281743;19;20265;-80
2023/09/08 10:45:47;;;;;;;8.75;3.88;;;46.80;53.90;;;;;;7283330;19;20192;-80
2023/09/08 10:48:15;;;;;;;8.27;3.90;;;47.00;55.00;;;;;;7284955;19;20199;-86
2023/09/08 10:50:42;;;;;;;8.30;3.85;;;47.30;54.80;;;;;;7289195;19;20281;-86
2023/09/08 10:53:17;;;;;;;9.77;3.88;;;47.40;52.00;;;;;;7285582;19;20399;-80
2023/09/08 10:55:47;;;;;;;8.43;3.70;;;47.50;52.40;;;;;;7286476;19;20216;-79
2023/09/08 10:58:33;;;;;;;7.75;3.95;;;47.50;52.40;;;;;;7282387;19;20191;-79
2023/09/08 11:01:02;;;;;;;9.23;3.90;;;47.50;52.70;;;;;;7272768;19;20180;-85
2023/09/08 11:03:42;;;;;;;8.90;3.42;;;47.90;52.50;;;;;;7304989;19;20199;-84
2023/09/08 11:06:12;;;;;;;6.40;3.15;;;48.20;51.50;;;;;;7289298;19;20192;-87
2023/09/08 11:08:42;;;;;;;7.93;2.95;;;47.70;49.00;;;;;;7285272;19;20192;-86
2023/09/08 11:11:13;;;;;;;7.68;3.28;;;46.70;50.40;;;;;;7281677;19;20199;-86
2023/09/08 11:13:45;;;;;;;8.98;3.72;;;46.00;50.90;;;;;;7281281;19;20224;-87
2023/09/08 11:16:11;;;;;;;7.68;3.38;;;46.10;52.20;;;;;;7281312;19;20213;-85
2023/09/08 11:18:37;;;;;;;7.40;3.90;;;46.00;51.50;;;;;;7283345;19;20176;-86
2023/09/08 11:21:08;;;;;;;6.45;3.67;;;46.10;51.60;;;;;;7284131;19;20545;-79
2023/09/08 11:23:34;;;;;;;6.38;3.58;;;46.20;53.30;;;;;;7283472;19;20196;-79
2023/09/08 11:26:00;;;;;;;7.47;3.80;;;46.20;53.00;;;;;;7282810;19;20185;-79
2023/09/08 11:28:28;;;;;;;5.28;3.50;;;46.60;52.90;;;;;;7305717;19;20200;-79
2023/09/08 11:30:55;;;;;;;9.40;3.70;;;47.20;52.90;;;;;;7282133;19;20180;-78
2023/09/08 11:33:25;;;;;;;12.38;4.18;;;46.20;52.40;;;;;;7281673;19;20288;-79
2023/09/08 11:35:52;;;;;;;6.13;3.42;;;46.50;53.70;;;;;;7281616;19;20184;-79
2023/09/08 11:38:19;;;;;;;8.23;3.80;;;46.40;52.50;;;;;;7281626;19;20201;-79
2023/09/08 11:40:45;;;;;;;14.15;4.30;;;45.60;52.00;;;;;;7282044;19;20188;-79
2023/09/08 11:43:11;;;;;;;6.97;3.40;;;46.00;54.80;;;;;;7283383;19;20180;-79
2023/09/08 11:45:37;;;;;;;7.70;3.50;;;45.90;52.90;;;;;;7280873;19;20774;-79
2023/09/08 11:48:06;;;;;;;8.68;3.80;;;46.00;54.30;;;;;;7280813;19;20177;-79
2023/09/08 11:50:32;;;;;;;5.63;3.35;;;46.20;54.10;;;;;;7285810;19;20205;-80
2023/09/08 11:52:59;;;;;;;8.68;3.33;;;46.00;53.10;;;;;;7311007;19;20180;-79
2023/09/08 11:55:25;;;;;;;10.32;3.55;;;45.80;52.70;;;;;;7289436;19;20255;-86
2023/09/08 11:57:57;;;;;;;6.30;3.55;;;45.30;53.00;;;;;;7289059;19;20710;-86
2023/09/08 12:00:25;;;;;;;7.88;3.28;;;45.40;53.10;;;;;;7291123;19;20256;-86
2023/09/08 12:02:52;;;;;;;8.95;4.22;;;45.70;54.40;;;;;;7289243;19;20188;-77
2023/09/08 12:05:24;;;;;;;10.90;3.83;;;45.60;54.60;;;;;;7286780;19;20187;-79
2023/09/08 12:07:57;;;;;;;10.73;3.45;;;45.40;52.90;;;;;;7290748;19;20202;-86
2023/09/08 12:10:25;;;;;;;8.82;3.45;;;44.60;54.30;;;;;;7286953;19;20193;-86
2023/09/08 12:13:00;;;;;;;9.60;3.58;;;44.50;54.70;;;;;;7287750;19;20200;-86
2023/09/08 12:15:34;;;;;;;8.60;3.60;;;44.90;55.00;;;;;;7287185;19;20218;-79
2023/09/08 12:18:01;;;;;;;7.28;3.40;;;44.90;53.50;;;;;;7270219;19;20570;-79
2023/09/08 12:20:28;;;;;;;7.13;3.30;;;44.80;54.10;;;;;;7311495;19;20184;-79
2023/09/08 12:22:54;;;;;;;10.23;3.35;;;45.00;56.50;;;;;;7288295;19;20185;-79
2023/09/08 12:25:20;;;;;;;7.00;3.30;;;44.80;52.30;;;;;;7286515;19;20258;-79
2023/09/08 12:27:49;;;;;;;11.50;3.80;;;44.30;54.20;;;;;;7288828;19;20180;-79
2023/09/08 12:30:29;;;;;;;12.25;3.40;;;43.60;54.40;;;;;;7290543;19;20181;-86
2023/09/08 12:32:57;;;;;;;9.07;3.40;;;43.30;55.90;;;;;;7291895;19;20177;-85
2023/09/08 12:35:23;;;;;;;11.25;3.78;;;43.20;56.50;;;;;;7289108;19;20187;-86
2023/09/08 12:38:03;;;;;;;7.97;3.22;;;42.70;56.40;;;;;;7289874;19;20185;-86